Time;durP1;ratioP1;P1;durP2;ratioP2;P2;SDS_P1;SDS_P2;PMS_P1;PMS_P2;Temp;Humidity;BMP_temperature;BMP_pressure;BME280_temperature;BME280_humidity;BME280_pressure;Samples;Min_cycle;Max_cycle;Signal;HPM_P1;HPM_P2
2021/05/09 00:00:31;;;;;;;;;;;7.60;99.90;;;;;;5093609;28;20494;-71
2021/05/09 00:02:57;;;;;;;;;;;7.60;99.90;;;;;;5093709;28;20284;-73
2021/05/09 00:05:22;;;;;;;;;;;7.60;99.90;;;;;;5093811;28;19934;-71
2021/05/09 00:07:48;;;;;;;;;;;7.60;99.90;;;;;;5089452;28;20412;-71
2021/05/09 00:10:14;;;;;;;;;;;7.50;99.90;;;;;;5093253;28;20273;-72
2021/05/09 00:12:39;;;;;;;;;;;7.40;99.90;;;;;;5093394;28;20365;-71
2021/05/09 00:15:06;;;;;;;;;;;7.30;99.90;;;;;;5093411;28;20055;-72
2021/05/09 00:17:32;;;;;;;;;;;7.30;99.90;;;;;;5092594;28;19912;-71
2021/05/09 00:19:57;;;;;;;;;;;7.30;99.90;;;;;;5093476;28;19912;-72
2021/05/09 00:22:22;;;;;;;;;;;7.30;99.90;;;;;;5093548;28;20281;-71
2021/05/09 00:24:48;;;;;;;;;;;7.30;99.90;;;;;;5093117;28;19916;-71
2021/05/09 00:27:13;;;;;;;;;;;7.30;99.90;;;;;;5092360;28;19951;-71
2021/05/09 00:29:39;;;;;;;;;;;7.30;99.90;;;;;;5092883;28;19914;-71
2021/05/09 00:32:04;;;;;;;;;;;7.30;99.90;;;;;;5093455;28;20133;-71
2021/05/09 00:34:30;;;;;;;;;;;7.30;99.90;;;;;;5092942;28;19934;-71
2021/05/09 00:36:55;;;;;;;;;;;7.30;99.90;;;;;;5088578;28;20365;-73
2021/05/09 00:39:21;;;;;;;;;;;7.30;99.90;;;;;;5092525;28;19915;-71
2021/05/09 00:41:46;;;;;;;;;;;7.30;99.90;;;;;;5092898;28;20449;-71
2021/05/09 00:44:12;;;;;;;;;;;7.30;99.90;;;;;;5092540;28;19912;-71
2021/05/09 00:46:37;;;;;;;;;;;7.30;99.90;;;;;;5091272;28;19915;-73
2021/05/09 00:49:03;;;;;;;;;;;7.30;99.90;;;;;;5094157;28;19912;-71
2021/05/09 00:51:28;;;;;;;;;;;7.30;99.90;;;;;;5094218;28;20002;-71
2021/05/09 00:53:56;;;;;;;;;;;7.30;99.90;;;;;;5092941;28;19919;-71
2021/05/09 00:56:22;;;;;;;;;;;7.30;99.90;;;;;;5091724;28;19998;-71
2021/05/09 00:58:50;;;;;;;;;;;7.30;99.90;;;;;;5091790;28;19923;-73
2021/05/09 01:01:15;;;;;;;;;;;7.30;99.90;;;;;;5092834;28;19916;-71
2021/05/09 01:03:42;;;;;;;;;;;7.40;99.90;;;;;;5092621;28;19912;-71
2021/05/09 01:06:07;;;;;;;;;;;7.40;99.90;;;;;;5089677;28;19908;-71
2021/05/09 01:08:34;;;;;;;;;;;7.40;99.90;;;;;;5091069;28;19908;-71
2021/05/09 01:11:00;;;;;;;;;;;7.40;99.90;;;;;;5087691;28;20006;-71
2021/05/09 01:13:25;;;;;;;;;;;7.40;99.90;;;;;;5092166;28;20583;-71
2021/05/09 01:15:51;;;;;;;;;;;7.40;99.90;;;;;;5091231;28;19965;-71
2021/05/09 01:18:17;;;;;;;;;;;7.40;99.90;;;;;;5092386;28;19908;-71
2021/05/09 01:20:42;;;;;;;;;;;7.40;99.90;;;;;;5092377;28;19908;-71
2021/05/09 01:23:07;;;;;;;;;;;7.30;99.90;;;;;;5090804;28;19908;-71
2021/05/09 01:25:33;;;;;;;;;;;7.30;99.90;;;;;;5091667;28;19908;-72
2021/05/09 01:27:59;;;;;;;;;;;7.30;99.90;;;;;;5091666;28;19994;-71
2021/05/09 01:30:25;;;;;;;;;;;7.40;99.90;;;;;;5092092;28;19943;-71
2021/05/09 01:32:50;;;;;;;;;;;7.40;99.90;;;;;;5091839;28;20388;-71
2021/05/09 01:35:16;;;;;;;;;;;7.40;99.90;;;;;;5091969;28;19912;-71
2021/05/09 01:37:42;;;;;;;;;;;7.30;99.90;;;;;;5087658;28;19946;-71
2021/05/09 01:40:10;;;;;;;;;;;7.40;99.90;;;;;;5091526;28;19908;-71
2021/05/09 01:42:36;;;;;;;;;;;7.40;99.90;;;;;;5091727;28;19912;-71
2021/05/09 01:45:02;;;;;;;;;;;7.40;99.90;;;;;;5091703;28;19914;-72
2021/05/09 01:47:27;;;;;;;;;;;7.40;99.90;;;;;;5090369;28;19999;-71
2021/05/09 01:49:53;;;;;;;;;;;7.40;99.90;;;;;;5091798;28;19912;-72
2021/05/09 01:52:19;;;;;;;;;;;7.40;99.90;;;;;;5091696;28;19912;-71
2021/05/09 01:54:45;;;;;;;;;;;7.30;99.90;;;;;;5089917;28;19908;-71
2021/05/09 01:57:10;;;;;;;;;;;7.20;99.90;;;;;;5090491;28;20426;-71
2021/05/09 01:59:36;;;;;;;;;;;7.20;99.90;;;;;;5091179;28;19908;-71
2021/05/09 02:02:01;;;;;;;;;;;7.30;99.90;;;;;;5091322;28;19908;-72
2021/05/09 02:04:27;;;;;;;;;;;7.20;99.90;;;;;;5091399;28;19908;-71
2021/05/09 02:06:52;;;;;;;;;;;7.30;99.90;;;;;;5087095;28;19914;-71
2021/05/09 02:09:18;;;;;;;;;;;7.30;99.90;;;;;;5089349;28;19908;-71
2021/05/09 02:11:43;;;;;;;;;;;7.40;99.90;;;;;;5090673;28;20253;-71
2021/05/09 02:14:09;;;;;;;;;;;7.40;99.90;;;;;;5091152;28;19908;-71
2021/05/09 02:16:34;;;;;;;;;;;7.40;99.90;;;;;;5090188;28;20483;-71
2021/05/09 02:19:00;;;;;;;;;;;7.40;99.90;;;;;;5091073;28;19908;-73
2021/05/09 02:21:25;;;;;;;;;;;7.30;99.90;;;;;;5090914;28;19912;-71
2021/05/09 02:23:51;;;;;;;;;;;7.30;99.90;;;;;;5090713;28;20276;-71
2021/05/09 02:26:16;;;;;;;;;;;7.30;99.90;;;;;;5090273;28;19908;-71
2021/05/09 02:28:42;;;;;;;;;;;7.20;99.90;;;;;;5091074;28;20375;-73
2021/05/09 02:31:08;;;;;;;;;;;7.20;99.90;;;;;;5089712;28;19991;-72
2021/05/09 02:33:34;;;;;;;;;;;7.20;99.90;;;;;;5091058;28;20015;-72
2021/05/09 02:35:59;;;;;;;;;;;7.20;99.90;;;;;;5089136;28;19912;-71
2021/05/09 02:38:25;;;;;;;;;;;7.20;99.90;;;;;;5088402;28;20003;-71
2021/05/09 02:40:50;;;;;;;;;;;7.20;99.90;;;;;;5090525;28;19912;-72
2021/05/09 02:43:16;;;;;;;;;;;7.20;99.90;;;;;;5090765;28;19915;-71
2021/05/09 02:45:42;;;;;;;;;;;7.20;99.90;;;;;;5089731;28;19908;-71
2021/05/09 02:48:07;;;;;;;;;;;7.30;99.90;;;;;;5090938;28;19919;-71
2021/05/09 02:50:33;;;;;;;;;;;7.30;99.90;;;;;;5091005;28;19955;-71
2021/05/09 02:52:58;;;;;;;;;;;7.30;99.90;;;;;;5090705;28;19913;-72
2021/05/09 02:55:24;;;;;;;;;;;7.30;99.90;;;;;;5090473;28;19908;-72
2021/05/09 02:57:49;;;;;;;;;;;7.30;99.90;;;;;;5088342;28;19909;-72
2021/05/09 03:00:15;;;;;;;;;;;7.20;99.90;;;;;;5090874;28;19984;-72
2021/05/09 03:02:41;;;;;;;;;;;7.20;99.90;;;;;;5090712;28;20292;-73
2021/05/09 03:05:07;;;;;;;;;;;7.20;99.90;;;;;;5090510;28;19977;-71
2021/05/09 03:07:32;;;;;;;;;;;7.20;99.90;;;;;;5089059;28;19912;-72
2021/05/09 03:09:58;;;;;;;;;;;7.20;99.90;;;;;;5110165;28;19918;-73
2021/05/09 03:12:23;;;;;;;;;;;7.30;99.90;;;;;;5110920;28;19915;-73
2021/05/09 03:14:48;;;;;;;;;;;7.20;99.90;;;;;;5110976;28;19908;-72
2021/05/09 03:17:14;;;;;;;;;;;7.30;99.90;;;;;;5109850;28;19976;-72
2021/05/09 03:19:39;;;;;;;;;;;7.30;99.90;;;;;;5110832;28;19974;-72
2021/05/09 03:22:05;;;;;;;;;;;7.30;99.90;;;;;;5111670;28;19995;-69
2021/05/09 03:24:31;;;;;;;;;;;7.30;99.90;;;;;;5114435;28;19919;-70
2021/05/09 03:26:56;;;;;;;;;;;7.40;99.90;;;;;;5113752;28;19976;-71
2021/05/09 03:29:22;;;;;;;;;;;7.30;99.90;;;;;;5114728;28;19990;-71
2021/05/09 03:31:47;;;;;;;;;;;7.20;99.90;;;;;;5114725;28;19908;-71
2021/05/09 03:34:12;;;;;;;;;;;7.30;99.90;;;;;;5114487;28;19908;-70
2021/05/09 03:36:38;;;;;;;;;;;7.30;99.90;;;;;;5103198;28;19999;-71
2021/05/09 03:39:04;;;;;;;;;;;7.30;99.90;;;;;;5093343;28;19916;-73
2021/05/09 03:41:29;;;;;;;;;;;7.40;99.90;;;;;;5094176;28;19919;-71
2021/05/09 03:43:55;;;;;;;;;;;7.40;99.90;;;;;;5094059;28;19908;-71
2021/05/09 03:46:20;;;;;;;;;;;7.30;99.90;;;;;;5093060;28;19908;-71
2021/05/09 03:48:46;;;;;;;;;;;7.30;99.90;;;;;;5094009;28;20373;-72
2021/05/09 03:51:11;;;;;;;;;;;7.30;99.90;;;;;;5093971;28;19908;-70
2021/05/09 03:53:37;;;;;;;;;;;7.30;99.90;;;;;;5093864;28;19918;-70
2021/05/09 03:56:02;;;;;;;;;;;7.40;99.90;;;;;;5092378;28;20400;-71
2021/05/09 03:58:28;;;;;;;;;;;7.40;99.90;;;;;;5093669;28;19987;-72
2021/05/09 04:00:53;;;;;;;;;;;7.40;99.90;;;;;;5093854;28;20350;-70
2021/05/09 04:03:23;;;;;;;;;;;7.40;99.90;;;;;;5093741;28;19912;-71
2021/05/09 04:05:51;;;;;;;;;;;7.50;99.90;;;;;;5092757;28;19932;-70
2021/05/09 04:08:17;;;;;;;;;;;7.60;99.90;;;;;;5090093;28;20362;-72
2021/05/09 04:10:42;;;;;;;;;;;7.60;99.90;;;;;;5093166;28;19949;-72
2021/05/09 04:13:08;;;;;;;;;;;7.60;99.90;;;;;;5093433;28;20015;-70
2021/05/09 04:15:33;;;;;;;;;;;7.60;99.90;;;;;;5093304;28;19912;-70
2021/05/09 04:17:59;;;;;;;;;;;7.60;99.90;;;;;;5092814;28;19995;-71
2021/05/09 04:20:24;;;;;;;;;;;7.50;99.90;;;;;;5093341;28;19915;-70
2021/05/09 04:22:50;;;;;;;;;;;7.50;99.90;;;;;;5093376;28;19908;-71
2021/05/09 04:25:15;;;;;;;;;;;7.50;99.90;;;;;;5092947;28;19957;-71
2021/05/09 04:27:41;;;;;;;;;;;7.50;99.90;;;;;;5092462;28;20003;-72
2021/05/09 04:30:06;;;;;;;;;;;7.60;99.90;;;;;;5093389;28;19908;-71
2021/05/09 04:32:32;;;;;;;;;;;7.70;99.90;;;;;;5093096;28;19912;-70
2021/05/09 04:34:57;;;;;;;;;;;7.80;99.90;;;;;;5093102;28;19908;-71
2021/05/09 04:37:23;;;;;;;;;;;7.80;99.90;;;;;;5098504;28;19922;-72
2021/05/09 04:39:48;;;;;;;;;;;7.90;99.90;;;;;;5112923;28;19918;-70
2021/05/09 04:42:14;;;;;;;;;;;7.90;99.90;;;;;;5112156;28;20385;-70
2021/05/09 04:44:39;;;;;;;;;;;7.90;99.90;;;;;;5113305;28;20356;-70
2021/05/09 04:47:05;;;;;;;;;;;7.90;99.90;;;;;;5112381;28;19963;-70
2021/05/09 04:49:30;;;;;;;;;;;8.00;99.90;;;;;;5113317;28;19914;-70
2021/05/09 04:51:56;;;;;;;;;;;8.00;99.90;;;;;;5113237;28;19911;-71
2021/05/09 04:54:24;;;;;;;;;;;7.90;99.90;;;;;;5112477;28;20015;-71
2021/05/09 04:56:50;;;;;;;;;;;7.90;99.90;;;;;;5111755;28;19912;-70
2021/05/09 04:59:15;;;;;;;;;;;8.00;99.90;;;;;;5112835;28;19925;-71
2021/05/09 05:01:41;;;;;;;;;;;8.00;99.90;;;;;;5112975;28;19969;-70
2021/05/09 05:04:06;;;;;;;;;;;8.10;99.90;;;;;;5112749;28;19915;-70
2021/05/09 05:06:32;;;;;;;;;;;8.20;99.90;;;;;;5103338;28;19934;-71
2021/05/09 05:08:57;;;;;;;;;;;8.20;99.90;;;;;;5091842;28;19912;-70
2021/05/09 05:11:23;;;;;;;;;;;8.40;99.90;;;;;;5092210;28;19908;-70
2021/05/09 05:13:48;;;;;;;;;;;8.60;99.90;;;;;;5092115;28;20286;-70
2021/05/09 05:16:15;;;;;;;;;;;8.70;99.90;;;;;;5091056;28;19960;-71
2021/05/09 05:18:41;;;;;;;;;;;8.90;99.90;;;;;;5092115;28;19936;-71
2021/05/09 05:21:06;;;;;;;;;;;9.30;99.90;;;;;;5091930;28;20386;-70
2021/05/09 05:23:33;;;;;;;;;;;9.60;99.90;;;;;;5091770;28;20783;-70
2021/05/09 05:25:58;;;;;;;;;;;9.80;99.90;;;;;;5090918;28;19929;-71
2021/05/09 05:28:24;;;;;;;;;;;9.90;99.90;;;;;;5091891;28;19979;-70
2021/05/09 05:30:50;;;;;;;;;;;10.00;99.90;;;;;;5092033;28;19909;-71
2021/05/09 05:33:45;;;;;;;;;;;10.10;99.90;;;;;;5091757;28;20429;-70
2021/05/09 05:36:10;;;;;;;;;;;10.40;99.90;;;;;;5079247;28;19982;-71
2021/05/09 05:38:36;;;;;;;;;;;10.60;99.90;;;;;;5090845;28;20403;-71
2021/05/09 05:41:01;;;;;;;;;;;10.70;99.90;;;;;;5091486;28;19961;-70
2021/05/09 05:43:28;;;;;;;;;;;10.80;99.90;;;;;;5091786;28;20418;-70
2021/05/09 05:45:54;;;;;;;;;;;10.80;99.90;;;;;;5090421;28;19954;-71
2021/05/09 05:48:20;;;;;;;;;;;10.80;99.90;;;;;;5091615;28;19995;-71
2021/05/09 05:50:46;;;;;;;;;;;10.90;99.90;;;;;;5091985;28;19915;-71
2021/05/09 05:53:15;;;;;;;;;;;11.00;99.90;;;;;;5091214;28;19940;-71
2021/05/09 05:55:40;;;;;;;;;;;11.10;99.90;;;;;;5089266;28;19983;-71
2021/05/09 05:58:06;;;;;;;;;;;11.10;99.90;;;;;;5091291;28;20027;-71
2021/05/09 06:00:31;;;;;;;;;;;11.20;99.90;;;;;;5091543;28;19919;-71
2021/05/09 06:02:57;;;;;;;;;;;11.30;99.90;;;;;;5091352;28;20281;-72
2021/05/09 06:05:22;;;;;;;;;;;11.40;99.90;;;;;;5091417;28;19904;-71
2021/05/09 06:07:48;;;;;;;;;;;11.60;99.90;;;;;;5087190;28;19908;-71
2021/05/09 06:10:13;;;;;;;;;;;12.20;99.90;;;;;;5091117;28;20002;-72
2021/05/09 06:12:39;;;;;;;;;;;12.90;99.90;;;;;;5090041;28;19912;-72
2021/05/09 06:15:04;;;;;;;;;;;13.20;99.90;;;;;;5091478;28;19908;-71
2021/05/09 06:17:30;;;;;;;;;;;13.30;99.90;;;;;;5090250;28;19909;-71
2021/05/09 06:19:55;;;;;;;;;;;13.30;99.90;;;;;;5091341;28;20305;-71
2021/05/09 06:22:21;;;;;;;;;;;13.30;99.90;;;;;;5091226;28;20053;-71
2021/05/09 06:24:46;;;;;;;;;;;13.20;99.90;;;;;;5091128;28;19953;-71
2021/05/09 06:27:12;;;;;;;;;;;13.20;99.90;;;;;;5090418;28;19944;-70
2021/05/09 06:29:37;;;;;;;;;;;13.20;99.90;;;;;;5091069;28;19985;-73
2021/05/09 06:32:03;;;;;;;;;;;13.30;99.90;;;;;;5091704;28;19908;-71
2021/05/09 06:34:29;;;;;;;;;;;13.30;99.90;;;;;;5091262;28;19919;-72
2021/05/09 06:36:54;;;;;;;;;;;13.40;99.90;;;;;;5087000;28;20291;-72
2021/05/09 06:39:25;;;;;;;;;;;13.50;99.90;;;;;;5090962;28;19912;-73
2021/05/09 06:41:51;;;;;;;;;;;13.60;99.90;;;;;;5091277;28;20074;-72
2021/05/09 06:44:17;;;;;;;;;;;13.70;99.90;;;;;;5091543;28;20373;-72
2021/05/09 06:46:43;;;;;;;;;;;13.90;99.90;;;;;;5088700;28;19940;-72
2021/05/09 06:49:08;;;;;;;;;;;14.00;99.90;;;;;;5090714;28;20004;-72
2021/05/09 06:51:34;;;;;;;;;;;14.20;99.90;;;;;;5091097;28;19954;-72
2021/05/09 06:53:59;;;;;;;;;;;14.80;99.90;;;;;;5091025;28;20368;-72
2021/05/09 06:56:26;;;;;;;;;;;15.90;99.90;;;;;;5090007;28;20269;-70
2021/05/09 06:58:51;;;;;;;;;;;17.20;99.90;;;;;;5095024;28;19908;-71
2021/05/09 07:01:17;;;;;;;;;;;18.60;99.90;;;;;;5093818;28;19908;-70
2021/05/09 07:03:42;;;;;;;;;;;19.80;99.90;;;;;;5094905;28;20440;-73
2021/05/09 07:06:08;;;;;;;;;;;20.90;98.60;;;;;;5091847;28;19908;-71
2021/05/09 07:08:33;;;;;;;;;;;21.90;95.80;;;;;;5093812;28;19995;-71
2021/05/09 07:11:00;;;;;;;;;;;22.80;94.80;;;;;;5094809;28;20365;-72
2021/05/09 07:13:25;;;;;;;;;;;23.60;94.30;;;;;;5093546;28;19982;-71
2021/05/09 07:15:52;;;;;;;;;;;24.20;92.50;;;;;;5093721;28;19947;-72
2021/05/09 07:18:22;;;;;;;;;;;24.70;91.30;;;;;;5094634;28;19948;-72
2021/05/09 07:20:55;;;;;;;;;;;25.20;90.70;;;;;;5094567;28;19953;-72
2021/05/09 07:23:20;;;;;;;;;;;25.90;89.60;;;;;;5094812;28;20113;-72
2021/05/09 07:25:46;;;;;;;;;;;26.20;86.80;;;;;;5093185;28;19970;-73
2021/05/09 07:28:13;;;;;;;;;;;26.80;81.20;;;;;;5094250;28;19908;-72
2021/05/09 07:30:39;;;;;;;;;;;27.00;77.50;;;;;;5094201;28;19912;-72
2021/05/09 07:33:05;;;;;;;;;;;27.10;78.20;;;;;;5094308;28;19912;-72
2021/05/09 07:35:30;;;;;;;;;;;27.00;77.70;;;;;;5094003;28;19954;-73
2021/05/09 07:37:59;;;;;;;;;;;27.30;75.50;;;;;;5090089;28;20381;-72
2021/05/09 07:40:25;;;;;;;;;;;27.60;72.50;;;;;;5093647;28;19923;-73
2021/05/09 07:42:50;;;;;;;;;;;27.80;72.50;;;;;;5094082;28;19908;-72
2021/05/09 07:45:19;;;;;;;;;;;28.20;65.00;;;;;;5094067;28;19919;-72
2021/05/09 07:47:45;;;;;;;;;;;28.40;61.00;;;;;;5092901;28;19957;-72
2021/05/09 07:50:11;;;;;;;;;;;28.70;62.30;;;;;;5094166;28;19908;-72
2021/05/09 07:52:37;;;;;;;;;;;28.40;68.40;;;;;;5093963;28;20360;-73
2021/05/09 07:55:03;;;;;;;;;;;28.70;67.20;;;;;;5093749;28;20020;-73
2021/05/09 07:57:28;;;;;;;;;;;28.80;60.90;;;;;;5092846;28;19948;-73
2021/05/09 07:59:54;;;;;;;;;;;28.80;59.30;;;;;;5093681;28;19958;-73
2021/05/09 08:02:20;;;;;;;;;;;28.50;57.00;;;;;;5094114;28;20284;-72
2021/05/09 08:04:46;;;;;;;;;;;28.40;57.80;;;;;;5093463;28;19912;-73
2021/05/09 08:07:12;;;;;;;;;;;28.40;60.60;;;;;;5089504;28;19908;-74
2021/05/09 08:09:37;;;;;;;;;;;28.20;57.50;;;;;;5093015;28;20273;-72
2021/05/09 08:12:03;;;;;;;;;;;28.10;55.70;;;;;;5093076;28;19915;-73
2021/05/09 08:14:28;;;;;;;;;;;27.90;56.50;;;;;;5093215;28;20369;-73
2021/05/09 08:16:54;;;;;;;;;;;27.90;59.70;;;;;;5092477;28;19912;-72
2021/05/09 08:19:19;;;;;;;;;;;27.70;58.50;;;;;;5093376;28;19908;-73
2021/05/09 08:21:45;;;;;;;;;;;27.70;58.20;;;;;;5093341;28;20341;-73
2021/05/09 08:24:10;;;;;;;;;;;27.80;57.00;;;;;;5093125;28;19995;-74
2021/05/09 08:26:35;;;;;;;;;;;27.80;60.80;;;;;;5091598;28;19934;-73
2021/05/09 08:29:02;;;;;;;;;;;28.00;59.10;;;;;;5093136;28;20374;-73
2021/05/09 08:31:28;;;;;;;;;;;28.30;61.50;;;;;;5091878;28;19908;-73
2021/05/09 08:33:53;;;;;;;;;;;28.40;55.90;;;;;;5092913;28;20333;-73
2021/05/09 08:36:19;;;;;;;;;;;28.50;56.10;;;;;;5088976;28;19908;-73
2021/05/09 08:38:44;;;;;;;;;;;28.40;51.50;;;;;;5092555;28;19980;-73
2021/05/09 08:41:10;;;;;;;;;;;28.10;53.30;;;;;;5092778;28;19915;-73
2021/05/09 08:43:36;;;;;;;;;;;27.90;53.50;;;;;;5092898;28;19914;-73
2021/05/09 08:46:01;;;;;;;;;;;28.20;56.30;;;;;;5092163;28;19908;-73
2021/05/09 08:48:27;;;;;;;;;;;28.20;54.80;;;;;;5092673;28;20117;-73
2021/05/09 08:50:54;;;;;;;;;;;28.10;55.90;;;;;;5092738;28;19908;-74
2021/05/09 08:53:20;;;;;;;;;;;28.20;52.00;;;;;;5092670;28;19926;-72
2021/05/09 08:55:45;;;;;;;;;;;28.10;52.80;;;;;;5091273;28;20331;-73
2021/05/09 08:58:11;;;;;;;;;;;28.40;57.20;;;;;;5092430;28;20395;-74
2021/05/09 09:00:37;;;;;;;;;;;28.80;57.40;;;;;;5092502;28;19943;-74
2021/05/09 09:03:04;;;;;;;;;;;29.30;53.00;;;;;;5091118;28;20239;-73
2021/05/09 09:05:40;;;;;;;;;;;29.40;51.60;;;;;;5092452;28;19948;-75
2021/05/09 09:08:06;;;;;;;;;;;29.60;52.30;;;;;;5089213;28;19908;-74
2021/05/09 09:10:48;;;;;;;;;;;29.70;56.70;;;;;;5091827;28;20003;-73
2021/05/09 09:13:31;;;;;;;;;;;29.90;54.00;;;;;;5092258;28;19912;-74
2021/05/09 09:16:00;;;;;;;;;;;30.10;55.10;;;;;;5091340;28;19913;-73
2021/05/09 09:18:29;;;;;;;;;;;30.40;52.50;;;;;;5092140;28;19908;-73
2021/05/09 09:20:55;;;;;;;;;;;30.40;54.40;;;;;;5091203;28;19915;-73
2021/05/09 09:23:21;;;;;;;;;;;30.70;54.60;;;;;;5092214;28;19908;-73
2021/05/09 09:25:46;;;;;;;;;;;31.00;52.50;;;;;;5089556;28;20012;-73
2021/05/09 09:28:12;;;;;;;;;;;31.40;53.20;;;;;;5092064;28;19908;-74
2021/05/09 09:30:48;;;;;;;;;;;31.80;50.00;;;;;;5092081;28;19915;-74
2021/05/09 09:33:14;;;;;;;;;;;31.90;47.40;;;;;;5091040;28;19912;-73
2021/05/09 09:35:44;;;;;;;;;;;31.70;51.40;;;;;;5090910;28;19958;-74
2021/05/09 09:38:21;;;;;;;;;;;31.80;53.70;;;;;;5088701;28;20341;-73
2021/05/09 09:41:05;;;;;;;;;;;31.80;46.80;;;;;;5082024;28;20399;-73
2021/05/09 09:43:30;;;;;;;;;;;31.70;48.40;;;;;;5081068;28;19908;-73
2021/05/09 09:45:56;;;;;;;;;;;31.80;47.70;;;;;;5079691;28;20266;-75
2021/05/09 09:48:35;;;;;;;;;;;32.00;50.50;;;;;;5080637;28;19908;-73
2021/05/09 09:51:00;;;;;;;;;;;32.00;48.20;;;;;;5071625;28;19909;-75
2021/05/09 09:53:29;;;;;;;;;;;31.80;45.90;;;;;;5071436;28;19938;-73
2021/05/09 09:56:02;;;;;;;;;;;31.60;46.90;;;;;;5070268;28;19917;-77
2021/05/09 09:58:44;;;;;;;;;;;31.80;47.00;;;;;;5071355;28;20416;-73
2021/05/09 10:01:10;;;;;;;;;;;32.10;46.50;;;;;;5071451;28;19935;-72
2021/05/09 10:03:36;;;;;;;;;;;32.30;46.80;;;;;;5071286;28;20706;-73
2021/05/09 10:06:02;;;;;;;;;;;32.70;46.20;;;;;;5070296;28;19908;-73
2021/05/09 10:08:27;;;;;;;;;;;32.70;41.50;;;;;;5089618;28;19908;-73
2021/05/09 10:10:53;;;;;;;;;;;32.20;42.50;;;;;;5090897;28;19908;-73
2021/05/09 10:13:19;;;;;;;;;;;32.00;47.80;;;;;;5091750;28;19912;-74
2021/05/09 10:15:45;;;;;;;;;;;32.00;46.80;;;;;;5091198;28;19995;-73
2021/05/09 10:18:12;;;;;;;;;;;32.10;47.30;;;;;;5090614;28;19993;-72
2021/05/09 10:20:37;;;;;;;;;;;32.40;46.70;;;;;;5091883;28;20379;-73
2021/05/09 10:23:07;;;;;;;;;;;32.70;45.70;;;;;;5091862;28;19939;-73
2021/05/09 10:25:42;;;;;;;;;;;33.00;46.50;;;;;;5091099;28;20418;-73
2021/05/09 10:28:09;;;;;;;;;;;33.20;46.10;;;;;;5091918;28;20361;-73
2021/05/09 10:30:54;;;;;;;;;;;33.20;47.40;;;;;;5091763;28;19908;-73
2021/05/09 10:33:38;;;;;;;;;;;33.30;43.40;;;;;;5091565;28;20007;-74
2021/05/09 10:36:04;;;;;;;;;;;33.30;47.00;;;;;;5089345;28;20056;-74
2021/05/09 10:38:30;;;;;;;;;;;33.30;42.30;;;;;;5089748;28;20311;-72
2021/05/09 10:41:12;;;;;;;;;;;33.10;44.90;;;;;;5091158;28;19908;-74
2021/05/09 10:43:38;;;;;;;;;;;33.20;44.80;;;;;;5091135;28;19915;-73
2021/05/09 10:46:04;;;;;;;;;;;33.40;45.70;;;;;;5089935;28;19953;-72
2021/05/09 10:48:32;;;;;;;;;;;33.50;44.70;;;;;;5091134;28;19908;-74
2021/05/09 10:51:01;;;;;;;;;;;33.70;46.70;;;;;;5089831;28;19923;-74
2021/05/09 10:53:29;;;;;;;;;;;33.80;43.40;;;;;;5090827;28;19973;-73
2021/05/09 10:55:54;;;;;;;;;;;33.90;42.60;;;;;;5088094;28;19999;-72
2021/05/09 10:58:40;;;;;;;;;;;34.00;43.00;;;;;;5087987;28;20002;-73
2021/05/09 11:01:08;;;;;;;;;;;34.00;42.00;;;;;;5087188;28;19961;-72
2021/05/09 11:03:40;;;;;;;;;;;33.90;41.50;;;;;;5087393;28;20451;-74
2021/05/09 11:06:07;;;;;;;;;;;33.90;42.50;;;;;;5084770;28;19978;-72
2021/05/09 11:08:41;;;;;;;;;;;33.90;44.60;;;;;;5095144;28;20284;-72
2021/05/09 11:11:10;;;;;;;;;;;34.10;45.00;;;;;;5089199;28;19994;-72
2021/05/09 11:13:56;;;;;;;;;;;34.00;40.60;;;;;;5090551;28;21101;-72
2021/05/09 11:16:22;;;;;;;;;;;33.80;42.00;;;;;;5090067;28;20064;-72
2021/05/09 11:19:02;;;;;;;;;;;33.90;42.30;;;;;;5090658;28;20423;-71
2021/05/09 11:21:30;;;;;;;;;;;34.10;43.60;;;;;;5090840;28;19982;-72
2021/05/09 11:23:56;;;;;;;;;;;34.00;41.30;;;;;;5090857;28;19916;-72
2021/05/09 11:26:22;;;;;;;;;;;33.90;42.60;;;;;;5089605;28;19908;-72
2021/05/09 11:29:06;;;;;;;;;;;33.50;40.10;;;;;;5090401;28;19908;-72
2021/05/09 11:31:33;;;;;;;;;;;33.40;41.90;;;;;;5090667;28;19908;-72
2021/05/09 11:33:59;;;;;;;;;;;33.50;39.10;;;;;;5090296;28;20365;-72
2021/05/09 11:36:25;;;;;;;;;;;33.50;41.30;;;;;;5086344;28;19908;-73
2021/05/09 11:38:51;;;;;;;;;;;33.70;41.10;;;;;;5090296;28;20006;-72
2021/05/09 11:41:16;;;;;;;;;;;33.50;42.60;;;;;;5090657;28;19943;-72
2021/05/09 11:44:00;;;;;;;;;;;33.50;41.20;;;;;;5092273;28;19908;-72
2021/05/09 11:46:32;;;;;;;;;;;33.80;39.50;;;;;;5092996;28;19927;-72
2021/05/09 11:49:16;;;;;;;;;;;34.10;41.20;;;;;;5093500;28;20467;-72
2021/05/09 11:51:55;;;;;;;;;;;34.20;39.50;;;;;;5094081;28;19915;-72
2021/05/09 11:54:22;;;;;;;;;;;34.20;40.50;;;;;;5092293;28;19969;-72
2021/05/09 11:57:06;;;;;;;;;;;34.30;42.40;;;;;;5092900;28;19908;-73
2021/05/09 11:59:40;;;;;;;;;;;34.20;39.40;;;;;;5093947;28;19916;-72
2021/05/09 12:02:21;;;;;;;;;;;34.20;40.20;;;;;;5093801;28;19942;-73
2021/05/09 12:04:48;;;;;;;;;;;34.10;41.00;;;;;;5093993;28;19912;-72
2021/05/09 12:07:15;;;;;;;;;;;33.70;39.40;;;;;;5089835;28;19908;-74
2021/05/09 12:09:40;;;;;;;;;;;33.20;39.80;;;;;;5093841;28;20348;-72
2021/05/09 12:12:06;;;;;;;;;;;33.10;39.10;;;;;;5093190;28;19939;-72
2021/05/09 12:14:32;;;;;;;;;;;33.00;41.80;;;;;;5093800;28;20314;-72
2021/05/09 12:16:58;;;;;;;;;;;33.20;41.40;;;;;;5092614;28;19961;-73
2021/05/09 12:19:30;;;;;;;;;;;33.10;40.00;;;;;;5093546;28;19912;-72
2021/05/09 12:22:03;;;;;;;;;;;33.10;42.00;;;;;;5093572;28;19908;-73
2021/05/09 12:24:28;;;;;;;;;;;33.30;41.30;;;;;;5093545;28;19908;-73
2021/05/09 12:26:57;;;;;;;;;;;33.40;45.00;;;;;;5092284;28;19918;-74
2021/05/09 12:29:22;;;;;;;;;;;33.50;41.80;;;;;;5093578;28;19908;-72
2021/05/09 12:31:48;;;;;;;;;;;33.40;40.80;;;;;;5093729;28;20004;-72
2021/05/09 12:34:22;;;;;;;;;;;33.30;40.50;;;;;;5093071;28;19965;-72
2021/05/09 12:37:03;;;;;;;;;;;33.10;42.30;;;;;;5089067;28;19912;-72
2021/05/09 12:39:28;;;;;;;;;;;32.60;41.10;;;;;;5093245;28;19912;-72
2021/05/09 12:41:54;;;;;;;;;;;32.60;40.40;;;;;;5091659;28;19919;-73
2021/05/09 12:44:21;;;;;;;;;;;32.70;41.10;;;;;;5093085;28;19909;-71
2021/05/09 12:46:46;;;;;;;;;;;32.90;40.40;;;;;;5090825;28;20003;-72
2021/05/09 12:49:13;;;;;;;;;;;33.00;37.40;;;;;;5092816;28;20003;-71
2021/05/09 12:52:01;;;;;;;;;;;33.20;38.80;;;;;;5093074;28;19916;-72
2021/05/09 12:54:36;;;;;;;;;;;33.10;40.00;;;;;;5091711;28;19915;-72
2021/05/09 12:57:21;;;;;;;;;;;33.10;43.10;;;;;;5091619;28;20002;-72
2021/05/09 13:00:08;;;;;;;;;;;33.30;42.50;;;;;;5092488;28;20387;-73
2021/05/09 13:02:43;;;;;;;;;;;33.30;40.00;;;;;;5093121;28;20332;-72
2021/05/09 13:05:15;;;;;;;;;;;33.30;39.60;;;;;;5092717;28;19931;-72
2021/05/09 13:07:41;;;;;;;;;;;33.30;40.90;;;;;;5088553;28;19908;-74
2021/05/09 13:10:07;;;;;;;;;;;33.40;42.10;;;;;;5092547;28;19912;-71
2021/05/09 13:12:32;;;;;;;;;;;33.50;41.00;;;;;;5092337;28;19958;-71
2021/05/09 13:14:58;;;;;;;;;;;33.30;40.50;;;;;;5092402;28;20357;-71
2021/05/09 13:17:23;;;;;;;;;;;33.30;42.00;;;;;;5091673;28;19955;-72
2021/05/09 13:19:52;;;;;;;;;;;33.40;41.80;;;;;;5092511;28;19953;-72
2021/05/09 13:22:17;;;;;;;;;;;33.40;37.70;;;;;;5092958;28;19915;-72
2021/05/09 13:24:47;;;;;;;;;;;33.00;36.50;;;;;;5092214;28;19908;-71
2021/05/09 13:27:13;;;;;;;;;;;32.90;40.70;;;;;;5091245;28;20246;-72
2021/05/09 13:29:39;;;;;;;;;;;33.00;40.00;;;;;;5092361;28;19908;-73
2021/05/09 13:32:05;;;;;;;;;;;33.20;38.80;;;;;;5091357;28;19956;-72
2021/05/09 13:34:30;;;;;;;;;;;33.50;40.00;;;;;;5092069;28;19919;-72
2021/05/09 13:36:59;;;;;;;;;;;33.70;40.20;;;;;;5087825;28;20400;-72
2021/05/09 13:39:24;;;;;;;;;;;33.70;41.60;;;;;;5091951;28;20311;-72
2021/05/09 13:41:50;;;;;;;;;;;33.70;42.30;;;;;;5091867;28;20045;-72
2021/05/09 13:44:15;;;;;;;;;;;33.70;41.50;;;;;;5092003;28;19908;-74
2021/05/09 13:46:41;;;;;;;;;;;33.70;40.50;;;;;;5090397;28;19912;-72
2021/05/09 13:49:06;;;;;;;;;;;33.70;41.00;;;;;;5091950;28;19955;-73
2021/05/09 13:51:32;;;;;;;;;;;33.70;36.30;;;;;;5092020;28;20354;-73
2021/05/09 13:53:57;;;;;;;;;;;33.80;37.40;;;;;;5091814;28;19922;-72
2021/05/09 13:56:23;;;;;;;;;;;34.00;38.40;;;;;;5089910;28;20415;-72
2021/05/09 13:58:49;;;;;;;;;;;34.10;40.60;;;;;;5091214;28;19908;-72
2021/05/09 14:01:14;;;;;;;;;;;34.10;40.30;;;;;;5091259;28;19908;-73
2021/05/09 14:03:40;;;;;;;;;;;34.20;38.40;;;;;;5090309;28;19916;-74
2021/05/09 14:06:05;;;;;;;;;;;34.40;37.80;;;;;;5087093;28;19915;-72
2021/05/09 14:08:31;;;;;;;;;;;34.50;40.30;;;;;;5089992;28;19912;-71
2021/05/09 14:10:56;;;;;;;;;;;34.60;43.70;;;;;;5072556;28;19916;-73
2021/05/09 14:13:22;;;;;;;;;;;34.70;40.20;;;;;;5071259;28;20289;-72
2021/05/09 14:15:50;;;;;;;;;;;34.60;37.90;;;;;;5071103;28;19915;-72
2021/05/09 14:18:16;;;;;;;;;;;34.50;38.40;;;;;;5069568;28;19915;-72
2021/05/09 14:20:41;;;;;;;;;;;34.50;34.90;;;;;;5069050;28;20003;-72